createdAt,value
2023-05-14T00:00:02.450Z,23.30
2023-05-14T00:02:50.486Z,23.40
2023-05-14T00:05:18.448Z,23.90
2023-05-14T00:07:46.299Z,24.60
2023-05-14T00:10:14.362Z,23.90
2023-05-14T00:12:42.392Z,23.60
2023-05-14T00:15:10.388Z,22.90
2023-05-14T00:17:38.414Z,23.30
2023-05-14T00:20:12.083Z,22.80
2023-05-14T00:25:09.294Z,21.50
2023-05-14T00:27:40.024Z,21.90
2023-05-14T00:30:08.369Z,22.40
2023-05-14T00:32:36.340Z,22.50
2023-05-14T00:35:04.586Z,22.40
2023-05-14T00:37:32.632Z,23.90
2023-05-14T00:40:00.508Z,22.90
2023-05-14T00:42:28.520Z,24.30
2023-05-14T00:44:56.432Z,23.60
2023-05-14T00:47:24.377Z,23.20
2023-05-14T00:49:52.504Z,23.80
2023-05-14T00:52:20.722Z,23.00
2023-05-14T00:54:49.393Z,22.60
2023-05-14T00:57:18.995Z,23.30
2023-05-14T00:59:47.231Z,22.70
2023-05-14T01:02:15.127Z,23.20
2023-05-14T01:04:43.228Z,22.70
2023-05-14T01:07:25.934Z,22.50
2023-05-14T01:10:13.694Z,21.30
2023-05-14T01:12:48.493Z,22.20
2023-05-14T01:15:23.908Z,22.70
2023-05-14T01:17:59.182Z,22.30
2023-05-14T01:20:27.436Z,23.60
2023-05-14T01:22:55.503Z,23.00
2023-05-14T01:25:23.454Z,22.90
2023-05-14T01:28:25.294Z,23.00
2023-05-14T01:31:12.126Z,22.40
2023-05-14T01:33:42.461Z,22.40
2023-05-14T01:36:11.103Z,23.90
2023-05-14T01:38:39.936Z,22.60
2023-05-14T01:41:08.297Z,22.90
2023-05-14T01:43:37.432Z,22.40
2023-05-14T01:46:05.670Z,22.40
2023-05-14T01:48:33.649Z,22.90
2023-05-14T01:51:02.651Z,22.70
2023-05-14T01:53:30.746Z,23.80
2023-05-14T01:55:58.683Z,22.50
2023-05-14T01:58:26.682Z,22.10
2023-05-14T02:00:54.623Z,23.00
2023-05-14T02:03:22.707Z,22.20
2023-05-14T02:05:51.236Z,22.90
2023-05-14T02:08:19.290Z,23.40
2023-05-14T02:10:47.163Z,23.00
2023-05-14T02:13:15.112Z,22.70
2023-05-14T02:15:43.074Z,24.10
2023-05-14T02:18:11.051Z,22.90
2023-05-14T02:20:39.181Z,22.30
2023-05-14T02:23:07.224Z,22.50
2023-05-14T02:25:35.352Z,24.80
2023-05-14T02:28:03.451Z,24.70
2023-05-14T02:30:31.572Z,24.60
2023-05-14T02:32:59.613Z,25.30
2023-05-14T02:35:27.632Z,23.60
2023-05-14T02:37:56.265Z,24.50
2023-05-14T02:40:24.476Z,24.20
2023-05-14T02:42:52.685Z,22.50
2023-05-14T02:45:21.652Z,22.10
2023-05-14T02:47:49.616Z,21.70
2023-05-14T02:50:17.762Z,22.80
2023-05-14T02:52:45.660Z,21.30
2023-05-14T02:55:13.570Z,22.40
2023-05-14T02:57:41.543Z,22.70
2023-05-14T03:00:10.194Z,21.80
2023-05-14T03:02:38.950Z,21.40
2023-05-14T03:05:07.718Z,22.20
2023-05-14T03:07:35.768Z,21.30
2023-05-14T03:10:04.231Z,22.20
2023-05-14T03:12:32.149Z,22.40
2023-05-14T03:15:00.121Z,22.40
2023-05-14T03:17:28.119Z,27.90
2023-05-14T03:19:56.080Z,31.10
2023-05-14T03:22:24.042Z,41.10
2023-05-14T03:24:52.428Z,27.80
2023-05-14T03:27:20.863Z,28.30
2023-05-14T03:29:48.833Z,28.00
2023-05-14T03:32:18.160Z,28.70
2023-05-14T03:34:46.110Z,26.00
2023-05-14T03:37:14.112Z,23.90
2023-05-14T03:39:42.125Z,25.00
2023-05-14T03:42:10.093Z,26.60
2023-05-14T03:44:38.350Z,26.60
2023-05-14T03:47:06.334Z,25.20
2023-05-14T03:49:34.235Z,24.10
2023-05-14T03:52:02.169Z,22.80
2023-05-14T03:54:30.247Z,22.90
2023-05-14T03:56:58.123Z,22.30
2023-05-14T03:59:26.073Z,23.90
2023-05-14T04:01:54.911Z,22.60
2023-05-14T04:04:22.923Z,21.30
2023-05-14T04:06:51.026Z,19.00
2023-05-14T04:09:18.929Z,16.40
2023-05-14T04:11:47.004Z,15.50
2023-05-14T04:14:15.041Z,15.60
2023-05-14T04:16:44.147Z,15.90
2023-05-14T04:19:12.388Z,14.90
2023-05-14T04:21:40.507Z,15.80
2023-05-14T04:24:08.592Z,15.20
2023-05-14T04:26:36.599Z,14.50
2023-05-14T04:29:04.564Z,14.10
2023-05-14T04:31:32.514Z,15.40
2023-05-14T04:34:00.502Z,14.50
2023-05-14T04:36:28.520Z,13.70
2023-05-14T04:38:56.659Z,16.90
2023-05-14T04:41:24.608Z,14.60
2023-05-14T04:43:56.261Z,15.00
2023-05-14T04:46:24.229Z,14.40
2023-05-14T04:48:52.242Z,15.00
2023-05-14T04:51:20.105Z,16.00
2023-05-14T04:53:47.987Z,16.10
2023-05-14T04:56:15.929Z,16.20
2023-05-14T04:58:43.851Z,16.10
2023-05-14T05:01:11.835Z,14.20
2023-05-14T05:03:39.832Z,14.80
2023-05-14T05:06:07.933Z,14.20
2023-05-14T05:08:36.543Z,15.40
2023-05-14T05:11:05.107Z,14.90
2023-05-14T05:13:33.090Z,15.80
2023-05-14T05:16:01.146Z,15.40
2023-05-14T05:18:29.180Z,15.00
2023-05-14T05:20:57.089Z,15.20
2023-05-14T05:23:24.981Z,15.50
2023-05-14T05:25:52.898Z,15.10
2023-05-14T05:28:20.844Z,14.50
2023-05-14T05:30:48.872Z,15.40
2023-05-14T05:33:16.996Z,15.90
2023-05-14T05:35:44.923Z,17.80
2023-05-14T05:38:12.962Z,18.20
2023-05-14T05:40:41.055Z,18.60
2023-05-14T05:43:09.016Z,18.00
2023-05-14T05:45:36.931Z,18.00
2023-05-14T05:48:05.645Z,17.70
2023-05-14T05:50:33.798Z,19.10
2023-05-14T05:53:01.951Z,18.40
2023-05-14T05:55:30.051Z,18.10
2023-05-14T05:57:58.141Z,18.60
2023-05-14T06:00:26.224Z,18.40
2023-05-14T06:02:54.355Z,17.20
2023-05-14T06:05:22.345Z,19.90
2023-05-14T06:07:50.575Z,18.20
2023-05-14T06:10:19.100Z,17.90
2023-05-14T06:12:47.148Z,17.80
2023-05-14T06:15:15.341Z,16.80
2023-05-14T06:17:43.334Z,17.10
2023-05-14T06:20:11.856Z,15.10
2023-05-14T06:22:39.843Z,17.50
2023-05-14T06:25:08.312Z,17.40
2023-05-14T06:27:36.277Z,18.70
2023-05-14T06:30:04.623Z,19.00
2023-05-14T06:32:32.722Z,18.20
2023-05-14T06:35:00.776Z,19.40
2023-05-14T06:37:28.691Z,19.50
2023-05-14T06:39:57.879Z,19.80
2023-05-14T06:42:26.578Z,17.10
2023-05-14T06:44:54.804Z,16.50
2023-05-14T06:47:22.800Z,15.90
2023-05-14T06:49:50.748Z,15.80
2023-05-14T06:52:18.668Z,15.00
2023-05-14T06:54:46.516Z,15.20
2023-05-14T06:57:14.462Z,15.00
2023-05-14T06:59:42.693Z,15.80
2023-05-14T07:02:10.749Z,16.70
2023-05-14T07:04:38.813Z,18.20
2023-05-14T07:07:06.830Z,17.50
2023-05-14T07:09:34.707Z,18.10
2023-05-14T07:12:02.696Z,16.40
2023-05-14T07:14:30.567Z,17.00
2023-05-14T07:16:58.517Z,19.80
2023-05-14T07:19:28.789Z,17.90
2023-05-14T07:21:57.656Z,16.00
2023-05-14T07:24:25.555Z,13.80
2023-05-14T07:26:54.731Z,14.00
2023-05-14T07:29:23.055Z,12.70
2023-05-14T07:31:51.681Z,14.30
2023-05-14T07:34:19.706Z,11.40
2023-05-14T07:36:47.903Z,13.70
2023-05-14T07:39:15.966Z,17.10
2023-05-14T07:41:44.360Z,16.40
2023-05-14T07:44:12.422Z,14.70
2023-05-14T07:46:41.078Z,14.80
2023-05-14T07:49:08.990Z,13.80
2023-05-14T07:51:36.866Z,13.10
2023-05-14T07:54:05.025Z,11.50
2023-05-14T07:56:32.956Z,12.20
2023-05-14T07:59:01.023Z,12.20
2023-05-14T08:01:28.932Z,12.90
2023-05-14T08:03:56.996Z,12.90
2023-05-14T08:06:27.584Z,12.60
2023-05-14T08:08:55.625Z,11.50
2023-05-14T08:11:23.622Z,11.80
2023-05-14T08:13:51.630Z,12.00
2023-05-14T08:16:19.740Z,10.60
2023-05-14T08:18:48.579Z,12.50
2023-05-14T08:21:16.959Z,11.30
2023-05-14T08:23:44.963Z,12.70
2023-05-14T08:26:12.933Z,13.50
2023-05-14T08:28:40.768Z,10.70
2023-05-14T08:31:08.826Z,10.50
2023-05-14T08:33:36.786Z,10.80
2023-05-14T08:36:05.039Z,9.20
2023-05-14T08:38:33.455Z,8.60
2023-05-14T08:41:01.579Z,9.10
2023-05-14T08:43:44.832Z,9.30
2023-05-14T08:46:15.187Z,8.70
2023-05-14T08:48:43.581Z,10.10
2023-05-14T08:51:12.160Z,10.40
2023-05-14T08:53:40.706Z,10.10
2023-05-14T08:56:09.525Z,10.40
2023-05-14T08:58:37.551Z,10.70
2023-05-14T09:01:05.779Z,10.00
2023-05-14T09:03:34.925Z,10.50
2023-05-14T09:06:04.016Z,9.80
2023-05-14T09:08:32.029Z,11.60
2023-05-14T09:10:59.973Z,10.60
2023-05-14T09:13:28.415Z,10.60
2023-05-14T09:15:57.443Z,10.40
2023-05-14T09:18:25.715Z,11.00
2023-05-14T09:20:53.811Z,11.70
2023-05-14T09:23:21.753Z,11.10
2023-05-14T09:25:49.724Z,10.80
2023-05-14T09:28:19.095Z,12.20
2023-05-14T09:30:51.646Z,12.00
2023-05-14T09:33:28.353Z,10.30
2023-05-14T09:36:00.308Z,9.60
2023-05-14T09:38:29.904Z,8.90
2023-05-14T09:40:59.222Z,8.80
2023-05-14T09:43:27.271Z,9.20
2023-05-14T09:45:55.340Z,6.90
2023-05-14T09:48:24.329Z,6.50
2023-05-14T09:50:52.371Z,6.60
2023-05-14T09:53:20.459Z,6.40
2023-05-14T09:55:49.371Z,4.60
2023-05-14T09:58:17.366Z,4.80
2023-05-14T10:00:46.932Z,5.20
2023-05-14T10:03:17.954Z,5.90
2023-05-14T10:05:49.399Z,4.70
2023-05-14T10:08:26.795Z,3.90
2023-05-14T10:10:56.110Z,4.60
2023-05-14T10:13:28.877Z,4.60
2023-05-14T10:16:09.583Z,5.00
2023-05-14T10:18:48.460Z,5.10
2023-05-14T10:21:21.760Z,5.00
2023-05-14T10:23:50.717Z,4.90
2023-05-14T10:26:18.753Z,5.10
2023-05-14T10:28:46.971Z,5.60
2023-05-14T10:31:15.023Z,5.10
2023-05-14T10:33:48.195Z,5.20
2023-05-14T10:36:17.926Z,5.20
2023-05-14T10:38:47.046Z,5.40
2023-05-14T10:41:18.056Z,4.90
2023-05-14T10:43:46.103Z,5.50
2023-05-14T10:46:14.809Z,5.00
2023-05-14T10:48:44.257Z,5.20
2023-05-14T10:51:12.685Z,5.60
2023-05-14T10:53:42.823Z,5.60
2023-05-14T10:56:14.666Z,5.70
2023-05-14T10:58:44.786Z,5.60
2023-05-14T11:01:13.780Z,5.90
2023-05-14T11:03:43.880Z,5.30
2023-05-14T11:06:13.957Z,5.10
2023-05-14T11:08:42.702Z,4.60
2023-05-14T11:11:11.020Z,4.20
2023-05-14T11:13:39.104Z,4.40
2023-05-14T11:16:21.873Z,4.80
2023-05-14T11:19:03.490Z,4.40
2023-05-14T11:21:32.925Z,3.90
2023-05-14T11:24:01.631Z,4.10
2023-05-14T11:26:29.643Z,4.00
2023-05-14T11:28:57.841Z,4.00
2023-05-14T11:31:25.842Z,3.90
2023-05-14T11:33:55.287Z,4.20
2023-05-14T11:36:23.283Z,3.80
2023-05-14T11:38:52.550Z,3.70
2023-05-14T11:41:22.911Z,4.10
2023-05-14T11:43:51.166Z,4.20
2023-05-14T11:46:19.236Z,5.10
2023-05-14T11:48:47.424Z,5.00
2023-05-14T11:51:15.390Z,3.60
2023-05-14T11:53:43.274Z,3.60
2023-05-14T11:56:11.454Z,3.50
2023-05-14T11:58:39.779Z,3.00
2023-05-14T12:01:13.325Z,3.40
2023-05-14T12:03:42.258Z,3.90
2023-05-14T12:06:10.588Z,3.80
2023-05-14T12:08:38.478Z,3.40
2023-05-14T12:11:07.050Z,3.30
2023-05-14T12:13:36.631Z,3.40
2023-05-14T12:16:05.398Z,2.90
2023-05-14T12:18:33.834Z,2.90
2023-05-14T12:21:07.947Z,2.90
2023-05-14T12:23:38.454Z,2.70
2023-05-14T12:26:08.285Z,3.10
2023-05-14T12:28:43.394Z,3.50
2023-05-14T12:31:11.674Z,2.70
2023-05-14T12:33:39.624Z,2.90
2023-05-14T12:36:20.273Z,3.00
2023-05-14T12:38:50.885Z,2.90
2023-05-14T12:41:18.876Z,2.90
2023-05-14T12:43:48.203Z,2.80
2023-05-14T12:46:17.192Z,2.90
2023-05-14T12:48:45.403Z,2.60
2023-05-14T12:51:13.431Z,2.80
2023-05-14T12:53:41.612Z,2.80
2023-05-14T12:56:09.760Z,2.90
2023-05-14T12:58:38.487Z,2.30
2023-05-14T13:01:06.840Z,2.70
2023-05-14T13:03:34.809Z,2.50
2023-05-14T13:06:02.885Z,2.50
2023-05-14T13:08:31.003Z,2.60
2023-05-14T13:10:58.976Z,2.40
2023-05-14T13:13:27.071Z,2.40
2023-05-14T13:15:55.596Z,2.80
2023-05-14T13:18:23.561Z,2.70
2023-05-14T13:20:51.866Z,2.80
2023-05-14T13:23:19.778Z,3.20
2023-05-14T13:25:49.760Z,2.50
2023-05-14T13:28:17.961Z,2.20
2023-05-14T13:31:05.521Z,2.50
2023-05-14T13:33:36.069Z,2.50
2023-05-14T13:36:04.821Z,2.80
2023-05-14T13:38:32.845Z,2.40
2023-05-14T13:41:04.230Z,2.50
2023-05-14T13:43:35.966Z,2.80
2023-05-14T13:46:06.049Z,2.90
2023-05-14T13:48:34.585Z,2.20
2023-05-14T13:51:02.854Z,2.70
2023-05-14T13:53:30.854Z,2.90
2023-05-14T13:56:00.953Z,2.80
2023-05-14T13:58:29.051Z,2.50
2023-05-14T14:00:57.116Z,2.60
2023-05-14T14:03:25.337Z,2.90
2023-05-14T14:05:53.487Z,2.50
2023-05-14T14:08:24.351Z,2.90
2023-05-14T14:10:54.517Z,2.70
2023-05-14T14:13:22.987Z,2.80
2023-05-14T14:15:51.315Z,3.10
2023-05-14T14:18:19.428Z,2.90
2023-05-14T14:20:47.695Z,3.20
2023-05-14T14:23:15.644Z,3.20
2023-05-14T14:25:43.764Z,3.10
2023-05-14T14:28:11.660Z,2.70
2023-05-14T14:30:39.681Z,3.40
2023-05-14T14:33:07.714Z,2.90
2023-05-14T14:35:36.434Z,2.90
2023-05-14T14:38:04.485Z,3.10
2023-05-14T14:40:35.191Z,2.80
2023-05-14T14:43:03.107Z,3.20
2023-05-14T14:45:31.151Z,3.10
2023-05-14T14:48:37.706Z,2.60
2023-05-14T14:51:06.793Z,2.90
2023-05-14T14:53:35.845Z,3.00
2023-05-14T14:56:04.501Z,2.60
2023-05-14T14:58:32.776Z,2.30
2023-05-14T15:01:01.450Z,2.50
2023-05-14T15:03:29.596Z,2.60
2023-05-14T15:05:57.633Z,3.00
2023-05-14T15:08:27.565Z,2.80
2023-05-14T15:10:59.469Z,2.90
2023-05-14T15:13:28.319Z,3.30
2023-05-14T15:15:56.292Z,2.80
2023-05-14T15:18:24.180Z,3.30
2023-05-14T15:20:52.871Z,2.80
2023-05-14T15:23:20.939Z,4.10
2023-05-14T15:25:49.490Z,5.30
2023-05-14T15:28:17.735Z,5.60
2023-05-14T15:30:47.694Z,5.00
2023-05-14T15:33:19.352Z,4.70
2023-05-14T15:35:47.465Z,3.80
2023-05-14T15:38:15.556Z,4.90
2023-05-14T15:40:43.614Z,4.90
2023-05-14T15:43:11.502Z,5.00
2023-05-14T15:45:39.442Z,4.90
2023-05-14T15:48:07.349Z,5.90
2023-05-14T15:50:35.314Z,6.00
2023-05-14T15:53:03.232Z,6.00
2023-05-14T15:55:31.995Z,5.90
2023-05-14T15:58:00.067Z,6.20
2023-05-14T16:00:28.038Z,5.90
2023-05-14T16:02:56.452Z,6.20
2023-05-14T16:05:24.530Z,6.50
2023-05-14T16:07:52.529Z,6.50
2023-05-14T16:10:21.525Z,6.60
2023-05-14T16:12:49.677Z,6.80
2023-05-14T16:15:17.656Z,6.80
2023-05-14T16:17:45.885Z,7.40
2023-05-14T16:20:15.520Z,6.80
2023-05-14T16:22:43.579Z,5.90
2023-05-14T16:25:11.447Z,6.60
2023-05-14T16:27:39.522Z,6.40
2023-05-14T16:30:08.023Z,6.00
2023-05-14T16:32:36.873Z,6.90
2023-05-14T16:35:05.740Z,6.50
2023-05-14T16:37:33.797Z,6.90
2023-05-14T16:40:01.796Z,6.60
2023-05-14T16:42:29.795Z,7.80
2023-05-14T16:44:57.718Z,7.60
2023-05-14T16:47:25.628Z,7.50
2023-05-14T16:49:53.638Z,8.30
2023-05-14T16:52:21.712Z,7.50
2023-05-14T16:54:49.667Z,7.60
2023-05-14T16:57:17.636Z,6.90
2023-05-14T16:59:46.411Z,6.70
2023-05-14T17:02:14.556Z,8.00
2023-05-14T17:04:43.316Z,7.30
2023-05-14T17:07:11.620Z,7.40
2023-05-14T17:09:39.525Z,7.60
2023-05-14T17:12:07.851Z,7.40
2023-05-14T17:14:35.968Z,7.50
2023-05-14T17:17:04.074Z,7.40
2023-05-14T17:19:32.112Z,7.40
2023-05-14T17:22:00.161Z,7.60
2023-05-14T17:24:28.085Z,7.20
2023-05-14T17:26:55.971Z,7.60
2023-05-14T17:29:23.859Z,7.60
2023-05-14T17:31:52.140Z,7.50
2023-05-14T17:34:20.276Z,7.60
2023-05-14T17:36:48.395Z,7.20
2023-05-14T17:39:16.436Z,6.50
2023-05-14T17:41:44.458Z,6.50
2023-05-14T17:44:13.209Z,5.80
2023-05-14T17:46:42.398Z,5.90
2023-05-14T17:49:11.862Z,5.90
2023-05-14T17:51:40.041Z,5.50
2023-05-14T17:54:07.922Z,5.30
2023-05-14T17:56:35.960Z,6.10
2023-05-14T17:59:04.179Z,6.00
2023-05-14T18:01:32.174Z,5.60
2023-05-14T18:04:00.349Z,5.50
2023-05-14T18:06:28.405Z,5.20
2023-05-14T18:08:56.369Z,6.20
2023-05-14T18:11:24.421Z,5.80
2023-05-14T18:13:52.383Z,5.40
2023-05-14T18:16:20.358Z,5.00
2023-05-14T18:18:48.330Z,5.30
2023-05-14T18:21:16.321Z,4.70
2023-05-14T18:23:44.590Z,5.20
2023-05-14T18:26:12.603Z,4.60
2023-05-14T18:28:40.778Z,5.00
2023-05-14T18:31:08.805Z,4.30
2023-05-14T18:33:37.161Z,4.20
2023-05-14T18:36:05.334Z,4.40
2023-05-14T18:38:33.395Z,4.60
2023-05-14T18:41:01.440Z,4.90
2023-05-14T18:43:29.355Z,4.90
2023-05-14T18:45:57.429Z,4.90
2023-05-14T18:48:26.405Z,4.70
2023-05-14T18:50:54.443Z,5.10
2023-05-14T18:53:22.367Z,4.80
2023-05-14T18:55:50.468Z,5.10
2023-05-14T18:58:18.456Z,5.50
2023-05-14T19:00:46.538Z,5.70
2023-05-14T19:03:14.683Z,6.10
2023-05-14T19:05:42.720Z,6.40
2023-05-14T19:08:10.928Z,6.70
2023-05-14T19:10:38.810Z,5.90
2023-05-14T19:13:07.033Z,6.40
2023-05-14T19:15:35.106Z,5.70
2023-05-14T19:18:03.314Z,6.00
2023-05-14T19:20:31.362Z,6.20
2023-05-14T19:23:01.632Z,5.90
2023-05-14T19:25:29.793Z,5.70
2023-05-14T19:27:57.926Z,5.80
2023-05-14T19:30:25.787Z,5.80
2023-05-14T19:32:53.879Z,6.10
2023-05-14T19:35:22.137Z,5.90
2023-05-14T19:37:50.220Z,5.30
2023-05-14T19:40:18.704Z,5.60
2023-05-14T19:42:46.745Z,5.50
2023-05-14T19:45:14.830Z,5.30
2023-05-14T19:47:43.024Z,5.80
2023-05-14T19:50:11.474Z,6.10
2023-05-14T19:52:39.410Z,6.80
2023-05-14T19:55:07.650Z,6.10
2023-05-14T19:57:35.651Z,7.80
2023-05-14T20:00:04.617Z,9.00
2023-05-14T20:02:40.814Z,9.40
2023-05-14T20:05:09.425Z,11.60
2023-05-14T20:07:39.594Z,11.20
2023-05-14T20:10:08.781Z,10.20
2023-05-14T20:12:36.726Z,9.40
2023-05-14T20:15:05.156Z,9.30
2023-05-14T20:17:33.109Z,8.40
2023-05-14T20:20:01.496Z,9.00
2023-05-14T20:22:29.446Z,8.80
2023-05-14T20:24:57.650Z,7.00
2023-05-14T20:27:25.728Z,7.20
2023-05-14T20:29:54.213Z,6.40
2023-05-14T20:32:25.087Z,6.00
2023-05-14T20:34:53.255Z,4.80
2023-05-14T20:37:21.642Z,5.10
2023-05-14T20:39:49.607Z,5.70
2023-05-14T20:42:17.743Z,5.40
2023-05-14T20:44:45.710Z,5.80
2023-05-14T20:47:16.471Z,5.70
2023-05-14T20:49:44.465Z,6.70
2023-05-14T20:52:13.397Z,7.70
2023-05-14T20:54:42.249Z,16.10
2023-05-14T20:57:11.811Z,14.50
2023-05-14T20:59:39.690Z,10.30
2023-05-14T21:02:08.146Z,7.70
2023-05-14T21:04:36.420Z,6.90
2023-05-14T21:07:05.275Z,6.70
2023-05-14T21:09:33.278Z,8.50
2023-05-14T21:12:01.259Z,7.60
2023-05-14T21:14:29.117Z,7.30
2023-05-14T21:16:57.070Z,6.70
2023-05-14T21:19:25.056Z,7.10
2023-05-14T21:21:53.070Z,7.00
2023-05-14T21:24:21.054Z,6.70
2023-05-14T21:26:49.053Z,7.20
2023-05-14T21:29:17.168Z,6.90
2023-05-14T21:31:45.108Z,7.00
2023-05-14T21:34:13.059Z,6.80
2023-05-14T21:36:41.068Z,7.00
2023-05-14T21:39:08.968Z,7.20
2023-05-14T21:41:36.877Z,7.40
2023-05-14T21:44:04.933Z,7.80
2023-05-14T21:46:32.979Z,7.60
2023-05-14T21:49:00.966Z,8.20
2023-05-14T21:51:28.970Z,8.40
2023-05-14T21:53:56.894Z,8.70
2023-05-14T21:56:24.802Z,8.90
2023-05-14T21:58:55.216Z,9.70
2023-05-14T22:01:23.266Z,9.40
2023-05-14T22:03:51.353Z,9.70
2023-05-14T22:06:19.503Z,10.30
2023-05-14T22:08:47.419Z,10.60
2023-05-14T22:11:15.381Z,12.00
2023-05-14T22:13:43.319Z,11.40
2023-05-14T22:16:13.702Z,11.40
2023-05-14T22:18:42.666Z,11.50
2023-05-14T22:21:10.705Z,11.50
2023-05-14T22:23:38.637Z,11.10
2023-05-14T22:26:06.629Z,10.20
2023-05-14T22:28:34.671Z,10.10
2023-05-14T22:31:04.199Z,10.30
2023-05-14T22:33:33.294Z,10.60
2023-05-14T22:36:01.269Z,10.00
2023-05-14T22:38:29.194Z,10.70
2023-05-14T22:40:57.056Z,10.50
2023-05-14T22:43:25.040Z,10.20
2023-05-14T22:45:53.211Z,10.40
2023-05-14T22:48:21.144Z,10.50
2023-05-14T22:50:49.032Z,10.40
2023-05-14T22:53:17.076Z,10.30
2023-05-14T22:55:45.115Z,10.50
2023-05-14T22:58:13.008Z,10.90
2023-05-14T23:00:40.994Z,10.20
2023-05-14T23:03:08.976Z,10.70
2023-05-14T23:05:36.878Z,10.60
2023-05-14T23:08:05.744Z,10.60
2023-05-14T23:10:35.529Z,10.60
2023-05-14T23:13:04.166Z,10.60
2023-05-14T23:15:33.246Z,11.20
2023-05-14T23:18:01.331Z,11.30
2023-05-14T23:20:29.301Z,10.70
2023-05-14T23:22:57.207Z,11.90
2023-05-14T23:25:25.415Z,11.50
2023-05-14T23:27:53.574Z,11.90
2023-05-14T23:30:21.966Z,12.00
2023-05-14T23:32:50.053Z,11.70
2023-05-14T23:35:18.309Z,11.70
2023-05-14T23:37:49.446Z,13.00
2023-05-14T23:40:17.825Z,12.20
2023-05-14T23:42:46.463Z,12.60
2023-05-14T23:45:14.415Z,13.00
2023-05-14T23:47:42.656Z,13.70
2023-05-14T23:50:10.848Z,13.60
2023-05-14T23:52:38.772Z,13.10
2023-05-14T23:55:06.980Z,14.40
2023-05-14T23:57:35.487Z,14.70
